createdAt,value
2023-03-29T00:00:18.020Z,85.44
2023-03-29T00:01:42.137Z,85.37
2023-03-29T00:02:45.356Z,85.37
2023-03-29T00:04:21.490Z,85.69
2023-03-29T00:05:24.703Z,85.67
2023-03-29T00:06:27.660Z,85.56
2023-03-29T00:08:02.557Z,85.56
2023-03-29T00:09:05.509Z,85.48
2023-03-29T00:10:08.353Z,85.54
2023-03-29T00:11:42.849Z,85.43
2023-03-29T00:12:45.596Z,85.48
2023-03-29T00:13:48.520Z,85.49
2023-03-29T00:15:23.332Z,85.51
2023-03-29T00:16:26.570Z,85.43
2023-03-29T00:17:29.775Z,85.35
2023-03-29T00:19:04.859Z,85.35
2023-03-29T00:20:08.071Z,85.18
2023-03-29T00:21:10.870Z,85.22
2023-03-29T00:22:45.658Z,85.39
2023-03-29T00:23:48.507Z,85.41
2023-03-29T00:24:51.583Z,85.35
2023-03-29T00:26:26.145Z,85.40
2023-03-29T00:27:29.146Z,85.39
2023-03-29T00:28:31.946Z,85.38
2023-03-29T00:30:06.504Z,85.44
2023-03-29T00:31:10.176Z,85.41
2023-03-29T00:32:13.182Z,85.58
2023-03-29T00:33:48.369Z,85.62
2023-03-29T00:34:51.269Z,85.60
2023-03-29T00:35:54.253Z,85.47
2023-03-29T00:37:29.365Z,85.35
2023-03-29T00:38:32.363Z,85.40
2023-03-29T00:39:35.414Z,85.36
2023-03-29T00:41:10.637Z,85.35
2023-03-29T00:42:13.403Z,85.21
2023-03-29T00:43:16.188Z,85.17
2023-03-29T00:44:50.747Z,85.22
2023-03-29T00:45:53.865Z,85.20
2023-03-29T00:46:57.301Z,85.20
2023-03-29T00:48:31.984Z,85.13
2023-03-29T00:49:34.969Z,85.25
2023-03-29T00:50:37.817Z,85.35
2023-03-29T00:52:13.162Z,85.34
2023-03-29T00:53:16.183Z,85.44
2023-03-29T00:54:18.992Z,85.47
2023-03-29T00:55:53.648Z,85.54
2023-03-29T00:56:56.670Z,85.67
2023-03-29T00:57:59.746Z,85.74
2023-03-29T00:59:34.295Z,85.65
2023-03-29T01:01:19.662Z,85.51
2023-03-29T01:02:23.009Z,85.48
2023-03-29T01:03:58.660Z,85.51
2023-03-29T01:05:01.626Z,85.63
2023-03-29T01:06:04.564Z,85.61
2023-03-29T01:07:39.290Z,85.59
2023-03-29T01:08:42.322Z,85.62
2023-03-29T01:09:45.179Z,85.69
2023-03-29T01:11:19.944Z,85.44
2023-03-29T01:12:23.026Z,85.35
2023-03-29T01:13:25.934Z,85.38
2023-03-29T01:15:00.496Z,85.30
2023-03-29T01:16:03.379Z,85.41
2023-03-29T01:17:06.554Z,85.50
2023-03-29T01:18:41.508Z,85.53
2023-03-29T01:19:44.392Z,85.52
2023-03-29T01:20:47.139Z,85.53
2023-03-29T01:22:21.922Z,85.45
2023-03-29T01:23:24.716Z,85.49
2023-03-29T01:24:27.616Z,85.46
2023-03-29T01:26:02.352Z,85.53
2023-03-29T01:27:05.201Z,85.52
2023-03-29T01:28:08.286Z,85.51
2023-03-29T01:29:42.895Z,85.65
2023-03-29T01:30:45.929Z,85.53
2023-03-29T01:31:49.323Z,85.42
2023-03-29T01:33:24.497Z,85.24
2023-03-29T01:34:27.519Z,85.22
2023-03-29T01:35:30.477Z,85.19
2023-03-29T01:37:05.146Z,85.22
2023-03-29T01:38:08.056Z,85.20
2023-03-29T01:39:10.837Z,85.09
2023-03-29T01:40:45.632Z,85.15
2023-03-29T01:41:48.969Z,85.25
2023-03-29T01:42:51.938Z,85.24
2023-03-29T01:44:26.594Z,85.56
2023-03-29T01:45:29.575Z,85.56
2023-03-29T01:46:32.774Z,85.48
2023-03-29T01:48:07.954Z,85.48
2023-03-29T01:49:10.739Z,85.42
2023-03-29T01:50:13.450Z,85.34
2023-03-29T01:51:48.267Z,85.26
2023-03-29T01:52:50.992Z,85.23
2023-03-29T01:53:53.947Z,85.02
2023-03-29T01:55:28.619Z,85.20
2023-03-29T01:56:31.417Z,84.96
2023-03-29T01:57:34.561Z,84.98
2023-03-29T01:59:09.516Z,85.13
2023-03-29T02:00:18.304Z,85.12
2023-03-29T02:01:21.662Z,85.05
2023-03-29T02:02:25.463Z,85.00
2023-03-29T02:04:00.751Z,85.03
2023-03-29T02:05:03.571Z,84.95
2023-03-29T02:06:06.358Z,84.97
2023-03-29T02:07:41.036Z,84.98
2023-03-29T02:08:43.865Z,84.93
2023-03-29T02:09:46.845Z,84.89
2023-03-29T02:11:21.478Z,84.94
2023-03-29T02:12:24.187Z,85.00
2023-03-29T02:13:27.070Z,85.04
2023-03-29T02:15:01.635Z,85.08
2023-03-29T02:16:04.814Z,85.09
2023-03-29T02:17:07.913Z,85.06
2023-03-29T02:18:42.950Z,85.11
2023-03-29T02:19:45.751Z,85.12
2023-03-29T02:20:48.711Z,85.07
2023-03-29T02:22:23.828Z,85.28
2023-03-29T02:23:26.889Z,85.31
2023-03-29T02:24:29.777Z,85.24
2023-03-29T02:26:04.292Z,85.13
2023-03-29T02:27:07.061Z,85.17
2023-03-29T02:28:09.821Z,85.14
2023-03-29T02:29:44.325Z,85.20
2023-03-29T02:30:47.297Z,85.23
2023-03-29T02:31:51.263Z,85.10
2023-03-29T02:33:25.890Z,85.17
2023-03-29T02:34:28.954Z,85.17
2023-03-29T02:35:31.956Z,85.14
2023-03-29T02:37:07.052Z,85.13
2023-03-29T02:38:09.982Z,85.12
2023-03-29T02:39:12.948Z,85.08
2023-03-29T02:40:47.791Z,85.08
2023-03-29T02:41:50.962Z,85.14
2023-03-29T02:42:53.773Z,85.09
2023-03-29T02:44:28.340Z,85.19
2023-03-29T02:45:31.147Z,85.26
2023-03-29T02:46:34.144Z,85.21
2023-03-29T02:48:09.328Z,85.30
2023-03-29T02:49:12.191Z,85.33
2023-03-29T02:50:15.237Z,85.37
2023-03-29T02:51:49.846Z,85.37
2023-03-29T02:52:52.829Z,85.40
2023-03-29T02:53:55.728Z,85.54
2023-03-29T02:55:30.375Z,85.41
2023-03-29T02:56:33.358Z,85.49
2023-03-29T02:57:36.560Z,85.51
2023-03-29T02:59:11.224Z,85.38
2023-03-29T03:00:17.776Z,85.26
2023-03-29T03:01:20.817Z,85.31
2023-03-29T03:02:24.267Z,85.41
2023-03-29T03:03:59.598Z,85.45
2023-03-29T03:05:02.807Z,85.42
2023-03-29T03:06:05.741Z,85.36
2023-03-29T03:07:40.553Z,85.68
2023-03-29T03:08:43.493Z,85.71
2023-03-29T03:09:46.378Z,85.98
2023-03-29T03:11:21.058Z,86.08
2023-03-29T03:12:23.921Z,86.11
2023-03-29T03:13:26.742Z,86.46
2023-03-29T03:15:01.322Z,86.66
2023-03-29T03:16:04.421Z,87.13
2023-03-29T03:17:10.548Z,87.35
2023-03-29T03:18:45.497Z,87.58
2023-03-29T03:19:48.368Z,87.54
2023-03-29T03:20:51.178Z,87.57
2023-03-29T03:22:26.158Z,87.80
2023-03-29T03:23:29.090Z,87.97
2023-03-29T03:24:31.924Z,87.92
2023-03-29T03:26:06.659Z,88.27
2023-03-29T03:27:09.494Z,88.36
2023-03-29T03:28:12.506Z,88.76
2023-03-29T03:29:47.383Z,88.90
2023-03-29T03:30:50.330Z,89.05
2023-03-29T03:31:54.229Z,89.01
2023-03-29T03:33:29.332Z,89.12
2023-03-29T03:34:32.128Z,89.14
2023-03-29T03:35:35.120Z,89.16
2023-03-29T03:37:10.121Z,89.30
2023-03-29T03:38:12.975Z,89.29
2023-03-29T03:39:15.681Z,89.46
2023-03-29T03:40:50.367Z,89.66
2023-03-29T03:41:53.982Z,89.67
2023-03-29T03:43:00.258Z,89.79
2023-03-29T03:44:35.307Z,89.81
2023-03-29T03:45:38.262Z,89.77
2023-03-29T03:46:41.676Z,89.81
2023-03-29T03:48:16.395Z,89.84
2023-03-29T03:49:19.302Z,89.80
2023-03-29T03:50:22.155Z,89.77
2023-03-29T03:51:58.384Z,89.77
2023-03-29T03:53:01.317Z,89.77
2023-03-29T03:54:04.071Z,89.72
2023-03-29T03:55:38.645Z,89.83
2023-03-29T03:56:41.524Z,89.83
2023-03-29T03:57:44.624Z,89.88
2023-03-29T03:59:19.406Z,89.79
2023-03-29T04:00:17.350Z,89.79
2023-03-29T04:01:20.275Z,89.83
2023-03-29T04:02:23.586Z,89.87
2023-03-29T04:03:59.400Z,89.85
2023-03-29T04:05:45.946Z,89.86
2023-03-29T04:06:49.755Z,89.82
2023-03-29T04:07:52.569Z,89.79
2023-03-29T04:09:27.627Z,89.95
2023-03-29T04:10:30.849Z,89.95
2023-03-29T04:11:34.054Z,90.25
2023-03-29T04:13:09.238Z,90.15
2023-03-29T04:14:12.359Z,90.21
2023-03-29T04:15:15.545Z,90.17
2023-03-29T04:16:50.884Z,90.37
2023-03-29T04:17:54.399Z,90.33
2023-03-29T04:18:58.439Z,90.34
2023-03-29T04:20:33.611Z,90.27
2023-03-29T04:21:36.710Z,90.27
2023-03-29T04:22:40.009Z,90.33
2023-03-29T04:24:14.998Z,90.31
2023-03-29T04:25:18.313Z,90.16
2023-03-29T04:26:21.282Z,90.28
2023-03-29T04:27:56.285Z,90.34
2023-03-29T04:28:59.212Z,90.24
2023-03-29T04:30:02.417Z,90.30
2023-03-29T04:31:37.337Z,90.27
2023-03-29T04:32:41.060Z,90.38
2023-03-29T04:33:44.851Z,90.46
2023-03-29T04:35:23.500Z,90.46
2023-03-29T04:36:27.172Z,90.49
2023-03-29T04:37:30.254Z,90.53
2023-03-29T04:39:05.368Z,90.60
2023-03-29T04:40:08.139Z,90.52
2023-03-29T04:41:11.360Z,90.54
2023-03-29T04:42:46.329Z,90.75
2023-03-29T04:43:49.306Z,90.76
2023-03-29T04:44:52.576Z,90.69
2023-03-29T04:46:27.833Z,90.87
2023-03-29T04:47:31.522Z,91.05
2023-03-29T04:48:35.070Z,91.01
2023-03-29T04:50:10.326Z,90.91
2023-03-29T04:51:13.772Z,90.89
2023-03-29T04:52:16.689Z,90.90
2023-03-29T04:53:53.714Z,90.85
2023-03-29T04:54:56.674Z,90.98
2023-03-29T04:55:59.960Z,91.00
2023-03-29T04:57:35.149Z,91.08
2023-03-29T04:58:38.619Z,91.17
2023-03-29T04:59:41.698Z,91.15
2023-03-29T05:01:20.602Z,91.19
2023-03-29T05:02:24.046Z,91.18
2023-03-29T05:03:59.389Z,91.25
2023-03-29T05:05:04.793Z,91.20
2023-03-29T05:06:07.863Z,91.25
2023-03-29T05:07:42.907Z,91.23
2023-03-29T05:08:46.224Z,91.26
2023-03-29T05:09:49.317Z,91.22
2023-03-29T05:11:24.603Z,91.26
2023-03-29T05:12:27.827Z,91.36
2023-03-29T05:13:31.017Z,91.29
2023-03-29T05:15:06.263Z,91.31
2023-03-29T05:16:09.708Z,91.39
2023-03-29T05:17:13.250Z,91.36
2023-03-29T05:18:48.493Z,91.41
2023-03-29T05:19:51.519Z,91.36
2023-03-29T05:20:54.649Z,91.55
2023-03-29T05:22:30.333Z,91.51
2023-03-29T05:23:33.496Z,91.44
2023-03-29T05:24:36.644Z,91.43
2023-03-29T05:26:12.004Z,91.40
2023-03-29T05:27:15.039Z,91.51
2023-03-29T05:28:17.940Z,91.49
2023-03-29T05:29:52.776Z,91.53
2023-03-29T05:30:56.005Z,91.63
2023-03-29T05:32:03.292Z,91.58
2023-03-29T05:33:39.114Z,91.68
2023-03-29T05:34:42.180Z,91.65
2023-03-29T05:35:45.174Z,91.61
2023-03-29T05:37:20.665Z,91.58
2023-03-29T05:38:23.802Z,91.63
2023-03-29T05:39:26.925Z,91.57
2023-03-29T05:41:02.268Z,91.54
2023-03-29T05:42:05.827Z,91.58
2023-03-29T05:43:08.963Z,91.57
2023-03-29T05:44:43.887Z,91.54
2023-03-29T05:45:47.084Z,91.64
2023-03-29T05:46:50.634Z,91.55
2023-03-29T05:48:25.668Z,91.50
2023-03-29T05:49:28.869Z,91.48
2023-03-29T05:50:31.833Z,91.52
2023-03-29T05:52:09.917Z,91.45
2023-03-29T05:53:13.132Z,91.40
2023-03-29T05:54:16.238Z,91.42
2023-03-29T05:55:51.589Z,91.39
2023-03-29T05:56:55.059Z,91.30
2023-03-29T05:57:58.398Z,91.29
2023-03-29T05:59:33.105Z,91.31
2023-03-29T06:01:21.175Z,91.27
2023-03-29T06:02:24.024Z,91.15
2023-03-29T06:04:02.677Z,91.08
2023-03-29T06:05:06.626Z,90.86
2023-03-29T06:06:09.818Z,90.86
2023-03-29T06:07:44.558Z,90.86
2023-03-29T06:08:47.813Z,90.86
2023-03-29T06:09:51.015Z,90.80
2023-03-29T06:11:25.979Z,90.91
2023-03-29T06:12:28.994Z,90.85
2023-03-29T06:13:31.919Z,90.80
2023-03-29T06:15:06.765Z,90.76
2023-03-29T06:16:09.675Z,90.69
2023-03-29T06:17:13.021Z,90.66
2023-03-29T06:18:48.246Z,90.63
2023-03-29T06:19:51.140Z,90.65
2023-03-29T06:20:54.077Z,90.60
2023-03-29T06:22:29.415Z,90.47
2023-03-29T06:23:32.562Z,90.44
2023-03-29T06:24:36.342Z,90.49
2023-03-29T06:26:11.393Z,90.43
2023-03-29T06:27:14.344Z,90.41
2023-03-29T06:28:17.383Z,90.40
2023-03-29T06:29:52.145Z,90.31
2023-03-29T06:30:55.337Z,90.27
2023-03-29T06:31:59.722Z,90.21
2023-03-29T06:33:34.388Z,90.18
2023-03-29T06:34:38.592Z,90.12
2023-03-29T06:35:41.825Z,90.07
2023-03-29T06:37:17.170Z,89.99
2023-03-29T06:38:20.290Z,89.83
2023-03-29T06:39:23.317Z,89.81
2023-03-29T06:40:58.083Z,89.70
2023-03-29T06:42:10.045Z,89.63
2023-03-29T06:43:20.296Z,89.38
2023-03-29T06:44:55.158Z,89.39
2023-03-29T06:45:57.996Z,89.44
2023-03-29T06:47:01.579Z,89.35
2023-03-29T06:48:36.765Z,89.24
2023-03-29T06:49:39.720Z,89.26
2023-03-29T06:50:42.514Z,89.14
2023-03-29T06:52:17.502Z,88.86
2023-03-29T06:53:20.551Z,88.91
2023-03-29T06:54:23.721Z,88.91
2023-03-29T06:55:58.484Z,88.77
2023-03-29T06:57:01.935Z,88.73
2023-03-29T06:58:08.397Z,88.55
2023-03-29T06:59:43.339Z,88.54
2023-03-29T07:01:21.061Z,88.50
2023-03-29T07:02:24.370Z,88.47
2023-03-29T07:03:59.641Z,88.40
2023-03-29T07:05:02.896Z,88.39
2023-03-29T07:06:06.134Z,88.31
2023-03-29T07:07:40.912Z,88.22
2023-03-29T07:08:43.936Z,88.18
2023-03-29T07:09:47.013Z,88.17
2023-03-29T07:11:21.889Z,88.13
2023-03-29T07:12:25.315Z,88.20
2023-03-29T07:13:28.445Z,88.24
2023-03-29T07:15:03.516Z,88.12
2023-03-29T07:16:06.816Z,88.02
2023-03-29T07:17:10.593Z,88.04
2023-03-29T07:18:45.909Z,87.82
2023-03-29T07:19:49.370Z,87.82
2023-03-29T07:20:52.269Z,87.74
2023-03-29T07:22:27.268Z,87.68
2023-03-29T07:23:30.067Z,87.71
2023-03-29T07:24:33.042Z,87.51
2023-03-29T07:26:07.671Z,87.42
2023-03-29T07:27:41.259Z,87.08
2023-03-29T07:28:44.287Z,87.24
2023-03-29T07:30:19.150Z,87.05
2023-03-29T07:31:24.325Z,86.60
2023-03-29T07:32:27.523Z,86.48
2023-03-29T07:34:03.723Z,86.34
2023-03-29T07:35:06.882Z,86.54
2023-03-29T07:36:10.130Z,86.47
2023-03-29T07:37:45.050Z,86.24
2023-03-29T07:38:48.180Z,86.28
2023-03-29T07:39:54.075Z,86.20
2023-03-29T07:41:28.879Z,85.87
2023-03-29T07:42:31.859Z,85.95
2023-03-29T07:43:35.066Z,86.03
2023-03-29T07:45:10.427Z,85.77
2023-03-29T07:46:20.402Z,85.67
2023-03-29T07:47:23.770Z,85.19
2023-03-29T07:48:59.068Z,85.03
2023-03-29T07:50:02.807Z,85.15
2023-03-29T07:51:06.399Z,85.12
2023-03-29T07:52:41.829Z,85.12
2023-03-29T07:53:44.781Z,84.92
2023-03-29T07:54:47.564Z,84.57
2023-03-29T07:56:22.407Z,84.53
2023-03-29T07:57:25.785Z,84.65
2023-03-29T07:58:28.789Z,84.50
2023-03-29T08:00:17.529Z,84.62
2023-03-29T08:01:25.276Z,84.73
2023-03-29T08:02:28.665Z,84.38
2023-03-29T08:04:04.762Z,84.08
2023-03-29T08:05:08.961Z,84.24
2023-03-29T08:06:32.802Z,84.32
2023-03-29T08:08:07.820Z,84.25
2023-03-29T08:09:10.806Z,84.08
2023-03-29T08:10:13.806Z,84.12
2023-03-29T08:11:48.551Z,83.76
2023-03-29T08:12:51.716Z,83.58
2023-03-29T08:13:54.759Z,83.73
2023-03-29T08:15:29.676Z,84.17
2023-03-29T08:16:32.811Z,84.70
2023-03-29T08:17:36.219Z,84.73
2023-03-29T08:19:15.349Z,83.62
2023-03-29T08:20:18.426Z,83.51
2023-03-29T08:21:21.487Z,83.29
2023-03-29T08:22:56.412Z,82.84
2023-03-29T08:23:59.333Z,82.55
2023-03-29T08:25:04.767Z,82.39
2023-03-29T08:26:39.992Z,82.17
2023-03-29T08:27:42.970Z,82.15
2023-03-29T08:28:45.971Z,82.37
2023-03-29T08:30:21.503Z,82.01
2023-03-29T08:31:24.732Z,81.95
2023-03-29T08:32:28.236Z,82.45
2023-03-29T08:34:07.923Z,82.70
2023-03-29T08:35:10.965Z,82.09
2023-03-29T08:36:14.143Z,82.42
2023-03-29T08:37:49.334Z,82.14
2023-03-29T08:38:52.318Z,82.21
2023-03-29T08:39:57.333Z,81.85
2023-03-29T08:41:32.515Z,81.75
2023-03-29T08:42:35.643Z,81.73
2023-03-29T08:43:38.577Z,82.02
2023-03-29T08:45:13.366Z,82.80
2023-03-29T08:46:16.385Z,83.02
2023-03-29T08:47:27.104Z,82.99
2023-03-29T08:49:01.924Z,82.71
2023-03-29T08:50:04.938Z,83.06
2023-03-29T08:51:10.043Z,82.80
2023-03-29T08:52:45.221Z,82.27
2023-03-29T08:53:48.262Z,82.10
2023-03-29T08:54:51.218Z,82.10
2023-03-29T08:56:26.413Z,81.82
2023-03-29T08:57:31.981Z,81.14
2023-03-29T08:58:35.150Z,80.69
2023-03-29T09:00:18.208Z,81.60
2023-03-29T09:01:21.322Z,81.76
2023-03-29T09:02:26.464Z,80.97
2023-03-29T09:04:02.270Z,80.03
2023-03-29T09:05:05.567Z,80.26
2023-03-29T09:06:08.804Z,80.13
2023-03-29T09:07:43.394Z,79.23
2023-03-29T09:08:46.596Z,79.28
2023-03-29T09:09:49.793Z,78.76
2023-03-29T09:11:24.915Z,79.19
2023-03-29T09:12:28.084Z,79.23
2023-03-29T09:13:34.484Z,79.73
2023-03-29T09:15:09.316Z,79.07
2023-03-29T09:16:12.663Z,78.77
2023-03-29T09:17:15.827Z,79.42
2023-03-29T09:18:50.566Z,79.37
2023-03-29T09:19:53.633Z,79.74
2023-03-29T09:20:56.475Z,79.76
2023-03-29T09:22:31.590Z,79.02
2023-03-29T09:23:34.790Z,78.95
2023-03-29T09:24:38.779Z,79.51
2023-03-29T09:26:13.593Z,79.20
2023-03-29T09:27:16.522Z,79.50
2023-03-29T09:28:19.655Z,80.22
2023-03-29T09:29:54.670Z,80.00
2023-03-29T09:30:57.658Z,79.47
2023-03-29T09:32:01.809Z,79.26
2023-03-29T09:33:36.939Z,79.12
2023-03-29T09:34:40.050Z,79.01
2023-03-29T09:35:43.164Z,79.05
2023-03-29T09:37:18.198Z,78.79
2023-03-29T09:38:21.085Z,78.98
2023-03-29T09:39:24.111Z,78.85
2023-03-29T09:40:59.065Z,78.61
2023-03-29T09:42:02.879Z,78.61
2023-03-29T09:43:05.796Z,78.51
2023-03-29T09:44:40.874Z,78.11
2023-03-29T09:45:44.082Z,78.26
2023-03-29T09:46:47.514Z,78.60
2023-03-29T09:48:22.321Z,78.05
2023-03-29T09:49:25.438Z,78.16
2023-03-29T09:50:37.449Z,78.39
2023-03-29T09:52:12.588Z,78.38
2023-03-29T09:53:15.615Z,78.69
2023-03-29T09:54:18.517Z,78.72
2023-03-29T09:55:55.963Z,78.94
2023-03-29T09:56:58.919Z,78.61
2023-03-29T09:58:02.480Z,78.55
2023-03-29T09:59:37.352Z,78.46
2023-03-29T10:01:20.956Z,78.46
2023-03-29T10:02:24.452Z,78.07
2023-03-29T10:04:00.167Z,78.29
2023-03-29T10:05:03.688Z,78.60
2023-03-29T10:06:06.847Z,78.59
2023-03-29T10:07:41.734Z,78.54
2023-03-29T10:08:44.713Z,78.15
2023-03-29T10:09:47.829Z,78.17
2023-03-29T10:11:22.463Z,78.43
2023-03-29T10:12:25.464Z,78.54
2023-03-29T10:13:28.326Z,78.58
2023-03-29T10:15:03.101Z,78.64
2023-03-29T10:16:22.104Z,78.48
2023-03-29T10:17:25.712Z,78.15
2023-03-29T10:19:00.964Z,78.89
2023-03-29T10:20:05.647Z,79.13
2023-03-29T10:21:09.973Z,79.59
2023-03-29T10:22:44.983Z,79.24
2023-03-29T10:23:48.047Z,78.07
2023-03-29T10:24:51.194Z,78.28
2023-03-29T10:26:26.010Z,78.30
2023-03-29T10:27:28.855Z,78.03
2023-03-29T10:28:32.247Z,78.58
2023-03-29T10:30:07.114Z,79.27
2023-03-29T10:31:11.000Z,79.29
2023-03-29T10:32:15.487Z,79.20
2023-03-29T10:33:50.787Z,78.02
2023-03-29T10:34:53.862Z,77.89
2023-03-29T10:35:57.309Z,77.07
2023-03-29T10:37:32.667Z,77.44
2023-03-29T10:38:35.644Z,77.67
2023-03-29T10:39:38.699Z,77.82
2023-03-29T10:41:13.709Z,77.87
2023-03-29T10:42:16.919Z,77.79
2023-03-29T10:43:19.750Z,77.89
2023-03-29T10:44:54.785Z,79.11
2023-03-29T10:45:58.141Z,78.71
2023-03-29T10:47:01.173Z,78.25
2023-03-29T10:48:35.836Z,78.64
2023-03-29T10:49:38.637Z,78.47
2023-03-29T10:50:43.700Z,79.17
2023-03-29T10:52:19.125Z,79.60
2023-03-29T10:53:22.028Z,79.10
2023-03-29T10:54:25.157Z,79.29
2023-03-29T10:56:00.069Z,78.14
2023-03-29T10:57:03.322Z,78.54
2023-03-29T10:58:09.288Z,77.41
2023-03-29T10:59:44.178Z,77.66
2023-03-29T11:01:20.472Z,78.03
2023-03-29T11:02:23.827Z,77.02
2023-03-29T11:04:02.468Z,77.21
2023-03-29T11:05:05.686Z,77.55
2023-03-29T11:06:08.802Z,77.94
2023-03-29T11:07:43.944Z,78.35
2023-03-29T11:08:46.981Z,77.56
2023-03-29T11:09:50.013Z,77.27
2023-03-29T11:11:25.351Z,77.10
2023-03-29T11:12:28.327Z,76.62
2023-03-29T11:13:31.591Z,76.80
2023-03-29T11:15:06.393Z,76.54
2023-03-29T11:16:09.680Z,76.77
2023-03-29T11:17:12.923Z,76.93
2023-03-29T11:18:48.110Z,77.05
2023-03-29T11:19:50.869Z,76.77
2023-03-29T11:20:56.967Z,76.28
2023-03-29T11:22:34.655Z,76.80
2023-03-29T11:23:37.546Z,76.58
2023-03-29T11:24:40.527Z,76.40
2023-03-29T11:26:15.740Z,76.65
2023-03-29T11:27:18.743Z,76.50
2023-03-29T11:28:21.785Z,77.31
2023-03-29T11:29:56.689Z,77.32
2023-03-29T11:31:00.549Z,77.17
2023-03-29T11:32:04.606Z,77.54
2023-03-29T11:33:39.708Z,77.86
2023-03-29T11:34:42.908Z,78.09
2023-03-29T11:35:45.845Z,78.08
2023-03-29T11:37:20.616Z,77.83
2023-03-29T11:38:23.719Z,77.91
2023-03-29T11:39:28.895Z,78.15
2023-03-29T11:41:04.210Z,77.71
2023-03-29T11:42:07.437Z,77.87
2023-03-29T11:43:10.561Z,77.79
2023-03-29T11:44:46.510Z,78.23
2023-03-29T11:45:52.765Z,78.45
2023-03-29T11:46:56.136Z,78.29
2023-03-29T11:48:31.543Z,78.33
2023-03-29T11:49:34.690Z,78.39
2023-03-29T11:50:40.351Z,78.66
2023-03-29T11:52:15.314Z,77.72
2023-03-29T11:53:18.333Z,77.50
2023-03-29T11:54:21.389Z,78.08
2023-03-29T11:55:56.083Z,78.33
2023-03-29T11:56:59.009Z,77.84
2023-03-29T11:58:02.419Z,76.97
2023-03-29T11:59:37.908Z,77.56
2023-03-29T12:01:20.237Z,77.53
2023-03-29T12:02:23.504Z,77.05
2023-03-29T12:04:00.767Z,77.60
2023-03-29T12:05:04.358Z,77.41
2023-03-29T12:06:07.269Z,77.62
2023-03-29T12:07:42.099Z,77.43
2023-03-29T12:08:45.036Z,77.24
2023-03-29T12:09:48.322Z,77.22
2023-03-29T12:11:23.021Z,77.49
2023-03-29T12:12:26.149Z,77.20
2023-03-29T12:13:29.050Z,76.90
2023-03-29T12:15:03.910Z,76.54
2023-03-29T12:16:07.114Z,76.61
2023-03-29T12:17:11.422Z,77.46
2023-03-29T12:18:46.669Z,77.20
2023-03-29T12:19:49.721Z,77.05
2023-03-29T12:20:52.947Z,77.55
2023-03-29T12:22:28.067Z,77.09
2023-03-29T12:23:31.052Z,77.15
2023-03-29T12:24:34.256Z,76.40
2023-03-29T12:26:09.073Z,76.33
2023-03-29T12:27:12.077Z,76.55
2023-03-29T12:28:15.057Z,77.02
2023-03-29T12:29:49.748Z,76.93
2023-03-29T12:30:52.805Z,76.76
2023-03-29T12:31:56.336Z,76.96
2023-03-29T12:33:31.455Z,77.16
2023-03-29T12:34:34.531Z,77.37
2023-03-29T12:35:38.035Z,77.70
2023-03-29T12:37:13.303Z,78.10
2023-03-29T12:38:16.516Z,78.56
2023-03-29T12:39:22.649Z,79.18
2023-03-29T12:40:57.636Z,80.37
2023-03-29T12:42:01.208Z,80.55
2023-03-29T12:43:04.120Z,81.56
2023-03-29T12:44:38.923Z,82.20
2023-03-29T12:45:41.759Z,82.49
2023-03-29T12:46:45.875Z,82.90
2023-03-29T12:48:20.661Z,82.89
2023-03-29T12:49:26.632Z,83.20
2023-03-29T12:50:29.719Z,82.96
2023-03-29T12:52:04.533Z,84.02
2023-03-29T12:53:07.454Z,84.03
2023-03-29T12:54:10.508Z,83.90
2023-03-29T12:55:46.368Z,83.72
2023-03-29T12:56:49.783Z,83.83
2023-03-29T12:57:53.316Z,82.48
2023-03-29T12:59:28.465Z,83.05
2023-03-29T13:01:20.830Z,82.88
2023-03-29T13:02:25.026Z,82.43
2023-03-29T13:04:00.513Z,82.13
2023-03-29T13:05:03.819Z,81.92
2023-03-29T13:06:07.657Z,81.74
2023-03-29T13:07:42.420Z,81.44
2023-03-29T13:08:45.371Z,81.72
2023-03-29T13:09:48.590Z,81.18
2023-03-29T13:11:23.613Z,81.04
2023-03-29T13:12:26.619Z,80.44
2023-03-29T13:13:31.201Z,80.40
2023-03-29T13:15:06.133Z,80.43
2023-03-29T13:16:09.550Z,80.17
2023-03-29T13:17:18.814Z,80.02
2023-03-29T13:18:58.558Z,80.09
2023-03-29T13:20:01.441Z,80.18
2023-03-29T13:21:04.336Z,80.86
2023-03-29T13:22:38.930Z,81.10
2023-03-29T13:23:42.170Z,80.77
2023-03-29T13:24:45.126Z,80.68
2023-03-29T13:26:19.944Z,80.58
2023-03-29T13:27:22.942Z,80.62
2023-03-29T13:28:25.803Z,80.60
2023-03-29T13:30:00.514Z,80.59
2023-03-29T13:31:03.668Z,80.58
2023-03-29T13:32:06.937Z,80.83
2023-03-29T13:33:42.123Z,80.16
2023-03-29T13:34:45.332Z,80.34
2023-03-29T13:35:48.293Z,80.65
2023-03-29T13:37:23.842Z,80.52
2023-03-29T13:38:26.735Z,80.34
2023-03-29T13:39:29.721Z,80.27
2023-03-29T13:41:04.363Z,80.27
2023-03-29T13:42:07.402Z,80.32
2023-03-29T13:43:10.462Z,80.22
2023-03-29T13:44:45.495Z,80.33
2023-03-29T13:45:48.489Z,80.54
2023-03-29T13:46:52.308Z,80.36
2023-03-29T13:48:45.050Z,80.74
2023-03-29T13:49:50.317Z,80.57
2023-03-29T13:50:54.573Z,80.71
2023-03-29T13:52:29.656Z,81.03
2023-03-29T13:53:32.788Z,81.06
2023-03-29T13:54:35.784Z,81.32
2023-03-29T13:56:14.847Z,81.33
2023-03-29T13:57:17.770Z,81.15
2023-03-29T13:58:21.348Z,81.06
2023-03-29T13:59:56.321Z,81.57
2023-03-29T14:00:17.703Z,81.57
2023-03-29T14:01:20.826Z,81.64
2023-03-29T14:02:24.447Z,81.54
2023-03-29T14:04:02.242Z,82.04
2023-03-29T14:05:05.168Z,82.25
2023-03-29T14:06:08.413Z,82.10
2023-03-29T14:07:43.319Z,81.97
2023-03-29T14:08:46.224Z,82.15
2023-03-29T14:09:49.684Z,82.20
2023-03-29T14:11:24.279Z,82.04
2023-03-29T14:12:27.329Z,82.08
2023-03-29T14:13:33.851Z,81.94
2023-03-29T14:15:08.582Z,82.09
2023-03-29T14:16:12.569Z,82.22
2023-03-29T14:17:15.722Z,82.14
2023-03-29T14:18:51.223Z,82.19
2023-03-29T14:19:54.294Z,82.84
2023-03-29T14:20:57.529Z,82.71
2023-03-29T14:22:32.409Z,82.94
2023-03-29T14:23:35.332Z,82.87
2023-03-29T14:24:38.248Z,82.94
2023-03-29T14:26:13.109Z,83.27
2023-03-29T14:27:16.019Z,83.16
2023-03-29T14:28:19.205Z,82.88
2023-03-29T14:29:54.013Z,82.46
2023-03-29T14:30:57.004Z,82.22
2023-03-29T14:32:00.689Z,82.17
2023-03-29T14:33:36.217Z,82.18
2023-03-29T14:34:39.411Z,82.58
2023-03-29T14:35:43.024Z,82.59
2023-03-29T14:37:19.453Z,82.60
2023-03-29T14:38:22.455Z,82.55
2023-03-29T14:39:25.429Z,82.66
2023-03-29T14:41:01.430Z,83.01
2023-03-29T14:42:05.044Z,82.91
2023-03-29T14:43:08.029Z,82.93
2023-03-29T14:44:42.840Z,82.88
2023-03-29T14:45:46.013Z,82.77
2023-03-29T14:46:50.106Z,82.91
2023-03-29T14:48:25.044Z,82.90
2023-03-29T14:49:28.081Z,82.73
2023-03-29T14:50:31.049Z,82.81
2023-03-29T14:52:06.079Z,82.75
2023-03-29T14:53:09.158Z,83.01
2023-03-29T14:54:12.147Z,83.20
2023-03-29T14:55:47.021Z,83.15
2023-03-29T14:56:50.451Z,83.06
2023-03-29T14:57:53.760Z,82.74
2023-03-29T14:59:29.204Z,82.85
2023-03-29T15:01:20.913Z,82.70
2023-03-29T15:02:24.122Z,82.80
2023-03-29T15:04:00.884Z,82.95
2023-03-29T15:05:03.996Z,82.94
2023-03-29T15:06:07.348Z,82.80
2023-03-29T15:07:42.485Z,82.61
2023-03-29T15:09:04.344Z,82.76
2023-03-29T15:10:08.852Z,82.85
2023-03-29T15:11:43.582Z,82.87
2023-03-29T15:12:46.492Z,82.92
2023-03-29T15:13:49.415Z,82.73
2023-03-29T15:15:24.421Z,82.89
2023-03-29T15:16:27.495Z,82.90
2023-03-29T15:17:39.422Z,82.95
2023-03-29T15:19:22.838Z,83.18
2023-03-29T15:20:25.770Z,82.81
2023-03-29T15:21:28.571Z,82.74
2023-03-29T15:23:03.284Z,83.00
2023-03-29T15:24:06.396Z,82.90
2023-03-29T15:25:09.507Z,82.76
2023-03-29T15:26:44.828Z,82.57
2023-03-29T15:27:48.068Z,82.60
2023-03-29T15:28:53.584Z,82.65
2023-03-29T15:30:28.551Z,82.67
2023-03-29T15:31:46.709Z,82.33
2023-03-29T15:32:50.281Z,82.35
2023-03-29T15:34:25.503Z,82.48
2023-03-29T15:35:28.465Z,82.63
2023-03-29T15:36:31.605Z,82.66
2023-03-29T15:38:06.660Z,82.34
2023-03-29T15:39:25.964Z,82.09
2023-03-29T15:40:29.070Z,82.05
2023-03-29T15:42:04.533Z,82.24
2023-03-29T15:43:07.755Z,82.36
2023-03-29T15:44:10.629Z,82.47
2023-03-29T15:45:47.356Z,82.73
2023-03-29T15:46:51.648Z,82.82
2023-03-29T15:47:55.038Z,82.74
2023-03-29T15:49:29.972Z,82.75
2023-03-29T15:50:33.044Z,82.69
2023-03-29T15:51:36.010Z,82.62
2023-03-29T15:53:20.924Z,82.73
2023-03-29T15:54:24.029Z,82.78
2023-03-29T15:55:27.148Z,82.74
2023-03-29T15:57:02.137Z,82.76
2023-03-29T15:58:06.697Z,82.89
2023-03-29T15:59:10.405Z,82.90
2023-03-29T16:00:17.942Z,82.89